Time;durP1;ratioP1;P1;durP2;ratioP2;P2;SDS_P1;SDS_P2;PMS_P1;PMS_P2;Temp;Humidity;BMP_temperature;BMP_pressure;BME280_temperature;BME280_humidity;BME280_pressure;Samples;Min_cycle;Max_cycle;Signal;HPM_P1;HPM_P2
2023/09/11 04:02:52;;;;;;;3.47;3.17;;;22.40;72.60;;;;;;4983292;23;20511;-71
2023/09/11 04:05:18;;;;;;;4.53;3.27;;;22.40;72.60;;;;;;4918920;29;20989;-70
2023/09/11 04:07:45;;;;;;;4.17;3.57;;;22.40;72.80;;;;;;4919169;29;20441;-70
2023/09/11 04:10:12;;;;;;;4.47;3.57;;;22.40;72.80;;;;;;4919154;29;20458;-71
2023/09/11 04:12:39;;;;;;;4.40;3.30;;;22.40;72.80;;;;;;4918686;29;20469;-70
2023/09/11 04:15:06;;;;;;;4.63;3.90;;;22.30;73.10;;;;;;4919111;29;20543;-71
2023/09/11 04:17:33;;;;;;;3.40;2.77;;;22.30;73.20;;;;;;4942495;23;20500;-74
2023/09/11 04:20:01;;;;;;;4.40;3.53;;;22.20;73.20;;;;;;4919041;29;20858;-74
2023/09/11 04:22:29;;;;;;;3.63;3.33;;;22.20;73.50;;;;;;4918868;29;20547;-73
2023/09/11 04:24:56;;;;;;;3.87;3.50;;;22.10;73.60;;;;;;4918859;29;20457;-74
2023/09/11 04:27:22;;;;;;;3.50;3.20;;;22.10;73.60;;;;;;4918442;29;20500;-74
2023/09/11 04:29:49;;;;;;;3.70;3.40;;;22.10;73.80;;;;;;4918710;29;20458;-74
2023/09/11 04:32:18;;;;;;;3.20;2.90;;;22.00;73.80;;;;;;4918694;29;20457;-74
2023/09/11 04:34:44;;;;;;;3.97;3.57;;;22.00;73.80;;;;;;4918707;29;20479;-77
2023/09/11 04:37:13;;;;;;;4.20;3.43;;;22.00;73.90;;;;;;4918546;29;20471;-74
2023/09/11 04:39:40;;;;;;;4.13;3.73;;;22.00;73.80;;;;;;4918199;29;20925;-74
2023/09/11 04:42:07;;;;;;;3.87;3.53;;;22.00;73.80;;;;;;4918453;29;20457;-75
2023/09/11 04:44:34;;;;;;;3.50;3.20;;;22.00;73.90;;;;;;4918463;29;20456;-74
2023/09/11 04:47:00;;;;;;;3.77;3.47;;;21.90;74.00;;;;;;4918403;29;20465;-74
2023/09/11 04:49:27;;;;;;;3.90;3.60;;;21.90;73.90;;;;;;4918372;29;20452;-74
2023/09/11 04:51:54;;;;;;;4.23;3.60;;;21.90;74.00;;;;;;4918357;29;20448;-73
2023/09/11 04:54:22;;;;;;;6.00;4.33;;;21.90;74.00;;;;;;4918318;29;20477;-74
2023/09/11 04:56:49;;;;;;;3.33;3.03;;;21.90;74.20;;;;;;4918184;29;20472;-74
2023/09/11 04:59:15;;;;;;;3.67;3.20;;;21.80;74.20;;;;;;4918208;29;20489;-74
2023/09/11 05:01:42;;;;;;;3.63;3.20;;;21.80;74.20;;;;;;4917894;29;20445;-74
2023/09/11 05:04:09;;;;;;;3.37;2.70;;;21.80;74.20;;;;;;4917305;29;20511;-74
2023/09/11 05:06:35;;;;;;;3.67;3.37;;;21.80;74.30;;;;;;4918008;29;20491;-74
2023/09/11 05:09:02;;;;;;;3.97;3.20;;;21.80;74.40;;;;;;4918100;29;20440;-74
2023/09/11 05:11:30;;;;;;;3.90;3.60;;;21.80;74.10;;;;;;4918070;29;20449;-74
2023/09/11 05:13:57;;;;;;;4.40;3.37;;;21.90;74.10;;;;;;4917979;29;20444;-74
2023/09/11 05:16:24;;;;;;;3.57;3.27;;;21.90;73.90;;;;;;4917641;29;20495;-74
2023/09/11 05:18:50;;;;;;;3.10;2.80;;;22.00;73.70;;;;;;4917804;29;20484;-74
2023/09/11 05:21:17;;;;;;;6.50;3.30;;;22.10;73.40;;;;;;4917856;29;20500;-74
2023/09/11 05:23:44;;;;;;;3.67;3.07;;;22.30;73.20;;;;;;4917783;29;20456;-74
2023/09/11 05:26:10;;;;;;;3.80;3.23;;;22.30;73.00;;;;;;4917709;29;20579;-74
2023/09/11 05:28:38;;;;;;;4.17;3.10;;;22.40;73.00;;;;;;4917745;29;20448;-74
2023/09/11 05:31:07;;;;;;;4.10;3.70;;;22.40;72.50;;;;;;4917372;29;20444;-74
2023/09/11 05:33:33;;;;;;;4.00;3.57;;;22.60;72.10;;;;;;4917643;29;20453;-74
2023/09/11 05:36:01;;;;;;;4.03;3.17;;;22.70;72.10;;;;;;4917530;29;20468;-75
2023/09/11 05:38:28;;;;;;;3.70;3.33;;;22.80;71.90;;;;;;4917547;29;20824;-74
2023/09/11 05:40:55;;;;;;;3.70;3.40;;;23.00;71.70;;;;;;4917175;29;20857;-75
2023/09/11 05:43:21;;;;;;;3.27;2.97;;;23.20;71.30;;;;;;4918251;29;20851;-74
2023/09/11 05:45:49;;;;;;;3.60;3.30;;;23.40;70.70;;;;;;4917160;29;20854;-73
2023/09/11 05:48:16;;;;;;;4.20;3.30;;;23.70;70.60;;;;;;4917360;29;20456;-73
2023/09/11 05:50:43;;;;;;;3.60;3.30;;;24.10;70.00;;;;;;4917290;29;20459;-74
2023/09/11 05:53:10;;;;;;;5.03;2.80;;;24.50;69.10;;;;;;4917109;29;20997;-74
2023/09/11 05:55:37;;;;;;;3.33;3.03;;;25.00;67.70;;;;;;4916957;29;20833;-74
2023/09/11 05:58:03;;;;;;;3.73;3.17;;;25.50;66.80;;;;;;4917627;29;20504;-73
2023/09/11 06:00:30;;;;;;;3.27;2.97;;;26.10;65.70;;;;;;4917208;29;20492;-74
2023/09/11 06:02:58;;;;;;;3.20;2.67;;;26.70;64.60;;;;;;4916932;29;20895;-74
2023/09/11 06:05:26;;;;;;;3.20;2.90;;;27.40;62.10;;;;;;4917118;29;20453;-74
2023/09/11 06:07:52;;;;;;;3.97;3.57;;;28.10;61.10;;;;;;4917239;29;20499;-74
2023/09/11 06:10:19;;;;;;;3.20;2.90;;;28.80;59.50;;;;;;4917250;29;20488;-75
2023/09/11 06:12:47;;;;;;;4.20;2.90;;;29.50;58.50;;;;;;4917027;29;20452;-74
2023/09/11 06:15:14;;;;;;;3.80;3.13;;;29.70;56.40;;;;;;4916860;29;20456;-74
2023/09/11 06:17:41;;;;;;;3.43;3.00;;;30.00;56.50;;;;;;4916606;29;21004;-74
2023/09/11 06:20:10;;;;;;;3.63;3.13;;;30.20;55.50;;;;;;4916956;29;20489;-74
2023/09/11 06:22:37;;;;;;;3.77;3.30;;;30.70;55.10;;;;;;4917073;29;20488;-74
2023/09/11 06:25:05;;;;;;;3.70;3.20;;;30.90;54.00;;;;;;4916938;29;20457;-74
2023/09/11 06:27:34;;;;;;;3.50;2.87;;;30.80;54.50;;;;;;4916813;29;20511;-74
2023/09/11 06:30:00;;;;;;;3.50;3.20;;;31.30;54.30;;;;;;4916882;29;20449;-74
2023/09/11 06:32:27;;;;;;;3.43;3.13;;;32.20;52.60;;;;;;4916958;29;20459;-74
2023/09/11 06:34:54;;;;;;;3.40;3.10;;;32.90;51.20;;;;;;4916793;29;20448;-74
2023/09/11 06:37:22;;;;;;;4.10;3.37;;;33.80;49.60;;;;;;4916481;29;20974;-74
2023/09/11 06:39:50;;;;;;;5.47;3.03;;;34.60;48.50;;;;;;4916413;29;21009;-74
2023/09/11 06:42:21;;;;;;;3.43;2.80;;;35.50;46.60;;;;;;4916552;29;20957;-74
2023/09/11 06:44:47;;;;;;;2.70;2.50;;;35.80;45.90;;;;;;4916798;29;20507;-75
2023/09/11 06:47:14;;;;;;;4.20;3.13;;;36.30;45.00;;;;;;4916704;29;20472;-74
2023/09/11 06:49:41;;;;;;;3.20;2.90;;;36.00;45.50;;;;;;4916732;29;20511;-74
2023/09/11 06:52:07;;;;;;;3.40;3.10;;;35.40;46.30;;;;;;4916777;29;20467;-74
2023/09/11 06:54:35;;;;;;;3.10;2.80;;;36.10;46.00;;;;;;4916849;29;20444;-75
2023/09/11 06:57:02;;;;;;;4.50;3.13;;;36.50;44.60;;;;;;4916274;29;20832;-75
2023/09/11 06:59:29;;;;;;;3.53;2.70;;;36.50;45.40;;;;;;4916660;29;20486;-75
2023/09/11 07:01:56;;;;;;;3.43;2.80;;;35.80;46.40;;;;;;4916314;29;20444;-74
2023/09/11 07:04:22;;;;;;;3.23;2.70;;;34.90;47.90;;;;;;4916576;29;20461;-75
2023/09/11 07:06:49;;;;;;;2.80;2.60;;;33.90;49.60;;;;;;4916484;29;20472;-74
2023/09/11 07:09:16;;;;;;;3.50;3.20;;;32.90;51.50;;;;;;4916608;29;20825;-74
2023/09/11 07:11:44;;;;;;;4.73;3.47;;;31.90;53.70;;;;;;4916565;29;20539;-75
2023/09/11 07:14:12;;;;;;;3.10;2.80;;;30.70;56.20;;;;;;4916483;29;20504;-71
2023/09/11 07:16:39;;;;;;;3.73;3.43;;;29.70;57.90;;;;;;4916125;29;20551;-73
2023/09/11 07:19:06;;;;;;;3.97;3.03;;;29.20;59.70;;;;;;4916053;29;20479;-73
2023/09/11 07:21:32;;;;;;;4.27;3.90;;;28.70;60.70;;;;;;4916080;29;20966;-73
2023/09/11 07:23:59;;;;;;;3.50;3.20;;;28.20;61.10;;;;;;4916107;29;20965;-73
2023/09/11 07:26:25;;;;;;;3.90;3.57;;;27.70;62.60;;;;;;4916442;29;20464;-73
2023/09/11 07:28:59;;;;;;;3.67;2.93;;;27.70;64.10;;;;;;4919492;29;20939;-73
2023/09/11 07:31:26;;;;;;;3.70;3.40;;;27.60;63.80;;;;;;4919667;29;20445;-73
2023/09/11 07:33:53;;;;;;;3.80;3.50;;;27.50;63.30;;;;;;4919662;29;20865;-73
2023/09/11 07:36:20;;;;;;;3.40;3.10;;;27.20;64.30;;;;;;4919496;29;20473;-73
2023/09/11 07:38:47;;;;;;;3.73;3.43;;;26.90;64.60;;;;;;4919577;29;20814;-73
2023/09/11 07:41:15;;;;;;;3.67;3.37;;;26.70;65.70;;;;;;4919164;29;20491;-73
2023/09/11 07:43:42;;;;;;;4.63;3.57;;;26.70;65.70;;;;;;4919502;29;20444;-73
2023/09/11 07:46:10;;;;;;;3.93;3.50;;;26.70;65.90;;;;;;4919381;29;20551;-73
2023/09/11 07:48:37;;;;;;;3.47;3.13;;;27.10;65.30;;;;;;4919443;29;20452;-74
2023/09/11 07:51:04;;;;;;;3.60;3.30;;;27.60;65.10;;;;;;4919543;29;20471;-74
2023/09/11 07:53:31;;;;;;;3.83;3.43;;;27.70;64.30;;;;;;4919325;29;20448;-74
2023/09/11 07:55:57;;;;;;;3.70;3.40;;;27.90;63.80;;;;;;4919277;29;20905;-74
2023/09/11 07:58:24;;;;;;;4.00;3.27;;;28.10;62.90;;;;;;4919307;29;20535;-73
2023/09/11 08:00:51;;;;;;;3.60;3.30;;;28.20;63.00;;;;;;4919253;29;20488;-74
2023/09/11 08:03:19;;;;;;;2.70;2.50;;;28.10;61.20;;;;;;4919199;29;20496;-74
2023/09/11 08:05:45;;;;;;;3.67;3.30;;;28.20;62.10;;;;;;4919270;29;20441;-74
2023/09/11 08:08:12;;;;;;;3.40;3.10;;;28.30;62.40;;;;;;4919389;29;20449;-74
2023/09/11 08:10:39;;;;;;;3.27;2.97;;;28.40;61.90;;;;;;4919077;29;20448;-74
2023/09/11 08:13:06;;;;;;;3.60;3.30;;;28.50;61.30;;;;;;4919081;29;20441;-73
2023/09/11 08:15:33;;;;;;;3.63;3.13;;;28.30;61.40;;;;;;4919098;29;20455;-73
2023/09/11 08:18:00;;;;;;;3.47;3.17;;;28.40;61.50;;;;;;4918572;29;20488;-74
2023/09/11 08:20:28;;;;;;;3.10;2.67;;;28.70;60.90;;;;;;4918845;29;21057;-74
2023/09/11 08:22:55;;;;;;;3.50;3.10;;;28.60;61.50;;;;;;4919085;29;20444;-74
2023/09/11 08:25:21;;;;;;;4.07;3.67;;;28.70;61.80;;;;;;4918660;29;20453;-74
2023/09/11 08:27:48;;;;;;;3.50;3.20;;;28.50;61.40;;;;;;4918992;29;20468;-74
2023/09/11 08:30:15;;;;;;;3.47;3.17;;;28.70;62.20;;;;;;4919082;29;20441;-73
2023/09/11 08:32:41;;;;;;;3.73;3.43;;;28.50;62.70;;;;;;4918973;29;20451;-74
2023/09/11 08:35:08;;;;;;;3.63;3.30;;;28.70;64.10;;;;;;4918655;29;20456;-74
2023/09/11 08:37:36;;;;;;;3.90;3.57;;;28.70;63.40;;;;;;4918557;29;20469;-74
2023/09/11 08:40:04;;;;;;;3.83;3.30;;;28.50;62.20;;;;;;4919176;29;20500;-74
2023/09/11 08:42:30;;;;;;;3.03;2.73;;;28.60;62.90;;;;;;4918679;29;21012;-74
2023/09/11 08:44:57;;;;;;;3.40;3.10;;;28.80;63.40;;;;;;4918639;29;20468;-74
2023/09/11 08:47:30;;;;;;;3.73;3.43;;;29.00;61.20;;;;;;4918411;29;20472;-74
2023/09/11 08:50:03;;;;;;;3.60;3.30;;;29.10;61.20;;;;;;4918503;29;20421;-74
2023/09/11 08:52:30;;;;;;;3.40;3.10;;;29.00;62.10;;;;;;4918057;29;20879;-74
2023/09/11 08:55:02;;;;;;;3.50;3.20;;;28.60;61.90;;;;;;4918305;29;20475;-74
2023/09/11 08:57:32;;;;;;;4.40;3.43;;;28.80;62.30;;;;;;4918303;29;20465;-74
2023/09/11 09:00:05;;;;;;;3.70;3.37;;;28.90;62.70;;;;;;4918191;29;20481;-74
2023/09/11 09:02:34;;;;;;;4.03;3.73;;;28.90;64.00;;;;;;4918317;29;20464;-74
2023/09/11 09:05:03;;;;;;;3.97;3.30;;;28.90;64.00;;;;;;4918137;29;20456;-74
2023/09/11 09:07:32;;;;;;;4.03;3.13;;;28.80;64.10;;;;;;4918084;29;20912;-74
2023/09/11 09:10:02;;;;;;;3.53;3.23;;;29.00;64.40;;;;;;4918088;29;20440;-74
2023/09/11 09:12:29;;;;;;;4.13;3.50;;;28.90;64.30;;;;;;4918058;29;20433;-74
2023/09/11 09:14:56;;;;;;;3.97;3.60;;;28.90;63.90;;;;;;4917984;29;20444;-74
2023/09/11 09:17:23;;;;;;;4.80;3.37;;;28.90;64.40;;;;;;4917450;29;21020;-74
2023/09/11 09:19:50;;;;;;;4.40;4.00;;;29.00;64.50;;;;;;4917763;29;20583;-74
2023/09/11 09:22:17;;;;;;;4.10;3.67;;;29.00;63.20;;;;;;4917829;29;20448;-74
2023/09/11 09:24:52;;;;;;;4.03;3.63;;;29.00;62.50;;;;;;4918065;29;20445;-74
2023/09/11 09:27:21;;;;;;;4.07;3.53;;;29.00;62.80;;;;;;4917661;29;20470;-74
2023/09/11 09:29:48;;;;;;;4.63;3.87;;;29.00;61.90;;;;;;4917739;29;20452;-74
2023/09/11 09:32:15;;;;;;;3.83;3.43;;;28.90;62.40;;;;;;4917382;29;20942;-74
2023/09/11 09:34:50;;;;;;;3.70;3.40;;;28.80;60.30;;;;;;4917586;29;20452;-74
2023/09/11 09:37:18;;;;;;;5.20;3.07;;;28.70;61.70;;;;;;4917565;29;20602;-74
2023/09/11 09:39:47;;;;;;;5.83;3.63;;;28.80;62.10;;;;;;4917277;29;20942;-74
2023/09/11 09:42:15;;;;;;;4.80;3.40;;;28.80;61.60;;;;;;4917236;29;21013;-74
2023/09/11 09:44:46;;;;;;;3.60;3.17;;;28.80;61.50;;;;;;4917515;29;20448;-74
2023/09/11 09:47:15;;;;;;;3.97;3.23;;;29.00;61.00;;;;;;4917438;29;20473;-74
2023/09/11 09:49:49;;;;;;;3.83;3.20;;;29.00;62.10;;;;;;4916659;29;21045;-74
2023/09/11 09:52:17;;;;;;;3.10;2.80;;;28.90;61.10;;;;;;4917449;29;20440;-74
2023/09/11 09:54:47;;;;;;;3.60;3.30;;;29.00;61.80;;;;;;4917394;29;20535;-74
2023/09/11 09:57:15;;;;;;;4.80;3.50;;;29.20;60.80;;;;;;4917213;29;20476;-74
2023/09/11 09:59:46;;;;;;;4.37;3.60;;;29.30;59.80;;;;;;4916896;29;20805;-74
2023/09/11 10:02:13;;;;;;;4.90;3.50;;;29.40;60.70;;;;;;4917436;29;20440;-74
2023/09/11 10:04:40;;;;;;;3.83;3.43;;;29.20;60.10;;;;;;4917165;29;20496;-74
2023/09/11 10:07:07;;;;;;;5.63;3.70;;;29.30;61.20;;;;;;4917071;29;20461;-74
2023/09/11 10:09:34;;;;;;;3.57;3.20;;;29.40;62.10;;;;;;4917170;29;20452;-74
2023/09/11 10:12:11;;;;;;;3.80;3.30;;;29.40;60.50;;;;;;4917091;29;20531;-74
2023/09/11 10:14:38;;;;;;;3.80;3.40;;;29.50;59.90;;;;;;4917168;29;20477;-74
2023/09/11 10:17:06;;;;;;;4.30;3.63;;;29.40;59.10;;;;;;5037150;23;20496;-75
2023/09/11 10:19:34;;;;;;;3.67;3.37;;;29.40;59.90;;;;;;4917011;29;20475;-75
2023/09/11 10:22:00;;;;;;;4.47;3.70;;;29.30;58.20;;;;;;4916713;29;21002;-75
2023/09/11 10:24:27;;;;;;;3.90;3.40;;;29.40;59.60;;;;;;4916955;29;20832;-75
2023/09/11 10:26:59;;;;;;;4.83;3.17;;;29.30;61.10;;;;;;4916886;29;20471;-75
2023/09/11 10:29:37;;;;;;;3.43;3.13;;;29.60;59.00;;;;;;4916991;29;20445;-74
2023/09/11 10:32:10;;;;;;;3.30;3.00;;;29.60;60.30;;;;;;4916927;29;20514;-75
2023/09/11 10:34:38;;;;;;;3.93;3.30;;;29.90;59.40;;;;;;4916893;29;20433;-75
2023/09/11 10:37:06;;;;;;;3.90;3.60;;;29.80;58.10;;;;;;4916465;29;20507;-75
2023/09/11 10:39:36;;;;;;;4.77;3.77;;;29.70;60.00;;;;;;4916903;29;20460;-78
2023/09/11 10:42:03;;;;;;;3.20;2.90;;;29.60;58.60;;;;;;4916810;29;20491;-75
2023/09/11 10:44:34;;;;;;;3.87;3.40;;;29.60;58.40;;;;;;4916783;29;20571;-75
2023/09/11 10:47:04;;;;;;;4.20;3.80;;;29.50;59.10;;;;;;4916711;29;20477;-75
2023/09/11 10:49:37;;;;;;;3.83;3.33;;;29.50;58.20;;;;;;4916753;29;20481;-75
2023/09/11 10:52:06;;;;;;;6.13;3.70;;;29.50;58.10;;;;;;4916736;29;20453;-75
2023/09/11 10:54:34;;;;;;;4.13;3.73;;;29.60;57.30;;;;;;4916636;29;20448;-75
2023/09/11 10:57:01;;;;;;;4.07;3.17;;;29.70;57.40;;;;;;4916612;29;20917;-76
2023/09/11 10:59:29;;;;;;;4.80;3.57;;;29.90;57.70;;;;;;4916606;29;20452;-75
2023/09/11 11:01:57;;;;;;;4.23;3.80;;;29.90;57.80;;;;;;4917770;29;20511;-75
2023/09/11 11:04:24;;;;;;;4.73;3.60;;;29.80;57.90;;;;;;4920230;29;20504;-76
2023/09/11 11:06:54;;;;;;;3.53;3.23;;;30.00;57.50;;;;;;4920157;29;20464;-75
2023/09/11 11:09:30;;;;;;;4.37;3.00;;;30.10;57.00;;;;;;4920976;29;20444;-75
2023/09/11 11:11:58;;;;;;;3.90;3.50;;;30.30;55.70;;;;;;4919856;29;20448;-75
2023/09/11 11:14:25;;;;;;;3.97;2.97;;;30.40;55.50;;;;;;4920055;29;20482;-75
2023/09/11 11:16:59;;;;;;;3.53;2.90;;;30.60;56.90;;;;;;4919556;29;20855;-76
2023/09/11 11:19:28;;;;;;;3.63;2.90;;;30.80;56.30;;;;;;4919968;29;20499;-75
2023/09/11 11:21:56;;;;;;;4.00;2.87;;;30.60;54.30;;;;;;4919625;29;20858;-75
2023/09/11 11:24:25;;;;;;;3.70;2.90;;;30.60;54.70;;;;;;4919914;29;20449;-76
2023/09/11 11:26:56;;;;;;;3.27;2.97;;;30.80;56.50;;;;;;4919796;29;20503;-75
2023/09/11 11:29:23;;;;;;;3.03;2.70;;;30.70;55.70;;;;;;4919901;29;20468;-75
2023/09/11 11:31:54;;;;;;;3.13;2.63;;;30.80;56.30;;;;;;4919500;29;20897;-76
2023/09/11 11:34:24;;;;;;;4.23;3.40;;;30.80;54.50;;;;;;4919792;29;20429;-75
2023/09/11 11:36:53;;;;;;;3.40;3.10;;;31.10;54.60;;;;;;4919634;29;20504;-76
2023/09/11 11:39:22;;;;;;;4.10;3.17;;;31.50;54.60;;;;;;4919705;29;20461;-75
2023/09/11 11:41:50;;;;;;;3.87;2.87;;;31.50;52.80;;;;;;4919571;29;20571;-75
2023/09/11 11:44:18;;;;;;;3.20;2.90;;;31.60;52.10;;;;;;4919617;29;20456;-76
2023/09/11 11:46:45;;;;;;;3.83;3.30;;;31.70;52.70;;;;;;4919149;29;20898;-75
2023/09/11 11:49:12;;;;;;;3.80;3.10;;;31.60;52.80;;;;;;4919452;29;20452;-75
2023/09/11 11:51:44;;;;;;;3.60;3.00;;;31.60;52.10;;;;;;4919424;29;20441;-75
2023/09/11 11:54:22;;;;;;;3.73;3.40;;;31.60;53.30;;;;;;4919452;29;20433;-76
2023/09/11 11:56:54;;;;;;;4.33;2.77;;;31.50;53.60;;;;;;4919018;29;20982;-74
2023/09/11 11:59:21;;;;;;;3.60;2.57;;;31.40;52.10;;;;;;4919334;29;20508;-75
2023/09/11 12:01:47;;;;;;;4.13;2.97;;;31.30;53.20;;;;;;4919177;29;20484;-75
2023/09/11 12:04:14;;;;;;;3.80;2.90;;;31.60;51.60;;;;;;4919186;29;20444;-75
2023/09/11 12:06:41;;;;;;;2.93;2.60;;;31.60;51.70;;;;;;4918766;29;20978;-76
2023/09/11 12:09:09;;;;;;;3.60;3.00;;;32.00;49.90;;;;;;4919108;29;20444;-75
2023/09/11 12:11:40;;;;;;;5.13;3.20;;;32.30;50.60;;;;;;4918990;29;20536;-76
2023/09/11 12:14:12;;;;;;;3.53;3.23;;;32.20;52.10;;;;;;4918676;29;20483;-75
2023/09/11 12:16:39;;;;;;;4.27;2.93;;;32.10;52.00;;;;;;4918746;29;20480;-75
2023/09/11 12:19:06;;;;;;;3.80;3.50;;;32.00;51.70;;;;;;4918983;29;20833;-75
2023/09/11 12:21:32;;;;;;;7.03;3.50;;;32.10;52.90;;;;;;4918860;29;20485;-75
2023/09/11 12:23:59;;;;;;;3.10;2.70;;;32.10;51.60;;;;;;4918826;29;20504;-75
2023/09/11 12:26:27;;;;;;;2.73;2.33;;;32.20;52.40;;;;;;4918703;29;20468;-76
2023/09/11 12:28:56;;;;;;;4.00;2.83;;;32.30;51.90;;;;;;4918469;29;20470;-75
2023/09/11 12:31:23;;;;;;;3.67;3.37;;;32.00;51.00;;;;;;4918757;29;20491;-75
2023/09/11 12:33:52;;;;;;;4.07;3.37;;;32.20;51.70;;;;;;4918652;29;20447;-76
2023/09/11 12:36:20;;;;;;;3.50;3.20;;;32.40;52.00;;;;;;4919342;29;20460;-76
2023/09/11 12:38:47;;;;;;;4.13;3.40;;;32.50;51.40;;;;;;4918650;29;20452;-75
2023/09/11 12:41:14;;;;;;;3.53;2.77;;;32.70;51.60;;;;;;4918494;29;20485;-75
2023/09/11 12:43:41;;;;;;;4.13;3.23;;;32.90;50.40;;;;;;4918459;29;20448;-75
2023/09/11 12:46:10;;;;;;;2.80;2.60;;;32.90;48.80;;;;;;4918313;29;20448;-75
2023/09/11 12:48:42;;;;;;;4.17;2.90;;;32.70;48.70;;;;;;4918029;29;20851;-75
2023/09/11 12:51:09;;;;;;;3.50;2.70;;;32.90;49.10;;;;;;4918287;29;20461;-76
2023/09/11 12:53:36;;;;;;;4.00;3.10;;;33.10;48.10;;;;;;4918226;29;20471;-76
2023/09/11 12:56:03;;;;;;;2.60;2.20;;;33.40;48.10;;;;;;4918108;29;20452;-76
2023/09/11 12:58:29;;;;;;;3.07;2.57;;;33.70;47.50;;;;;;4918134;29;20448;-75
2023/09/11 13:00:58;;;;;;;4.13;2.70;;;33.90;47.40;;;;;;4917983;29;20495;-76
2023/09/11 13:03:26;;;;;;;3.50;3.20;;;33.80;48.10;;;;;;4918082;29;20444;-76
2023/09/11 13:05:53;;;;;;;3.90;2.53;;;33.90;48.60;;;;;;4917731;29;20455;-76
2023/09/11 13:08:20;;;;;;;3.63;2.93;;;34.20;48.30;;;;;;4917742;29;20464;-75
2023/09/11 13:10:46;;;;;;;4.80;2.83;;;34.10;47.10;;;;;;4917619;29;20826;-76
2023/09/11 13:13:13;;;;;;;2.87;2.57;;;34.10;47.80;;;;;;4917955;29;20455;-75
2023/09/11 13:15:40;;;;;;;3.70;2.80;;;34.00;47.90;;;;;;4917909;29;20444;-75
2023/09/11 13:18:07;;;;;;;3.67;2.60;;;34.20;47.10;;;;;;4917347;29;20544;-75
2023/09/11 13:20:35;;;;;;;3.83;2.80;;;34.20;46.10;;;;;;4917786;29;20448;-75
2023/09/11 13:23:02;;;;;;;4.00;2.60;;;34.20;46.90;;;;;;4917417;29;20864;-75
2023/09/11 13:25:29;;;;;;;3.27;2.77;;;34.00;47.30;;;;;;4916973;29;20543;-76
2023/09/11 13:27:55;;;;;;;4.47;2.60;;;34.10;47.10;;;;;;4917626;29;20468;-75
2023/09/11 13:30:22;;;;;;;2.93;2.63;;;34.20;46.70;;;;;;4917394;29;20966;-76
2023/09/11 13:32:49;;;;;;;3.23;2.87;;;34.40;46.30;;;;;;4917601;29;20496;-76
2023/09/11 13:35:16;;;;;;;4.03;2.90;;;34.30;46.40;;;;;;4917505;29;20500;-76
2023/09/11 13:37:44;;;;;;;4.97;2.60;;;34.20;47.10;;;;;;4917509;29;20546;-76
2023/09/11 13:40:11;;;;;;;3.10;2.80;;;34.40;46.80;;;;;;4917167;29;20954;-76
2023/09/11 13:42:38;;;;;;;4.13;2.80;;;34.30;45.80;;;;;;4917307;29;20480;-76
2023/09/11 13:45:06;;;;;;;3.00;2.40;;;34.00;47.50;;;;;;4917083;29;20455;-76
2023/09/11 13:47:33;;;;;;;2.93;2.63;;;34.20;46.70;;;;;;4916959;29;20905;-76
2023/09/11 13:49:59;;;;;;;3.80;2.70;;;34.30;46.30;;;;;;4917298;29;20452;-76
2023/09/11 13:52:26;;;;;;;4.87;3.00;;;34.50;46.10;;;;;;4917411;29;20448;-76
2023/09/11 13:54:54;;;;;;;4.23;2.80;;;34.40;46.50;;;;;;4918098;29;20453;-76
2023/09/11 13:57:21;;;;;;;4.30;2.73;;;34.50;46.30;;;;;;4917135;29;20468;-75
2023/09/11 13:59:48;;;;;;;3.73;2.53;;;34.20;45.80;;;;;;4917207;29;20551;-75
2023/09/11 14:02:15;;;;;;;3.53;2.40;;;34.50;47.40;;;;;;4916841;29;20480;-75
2023/09/11 14:04:41;;;;;;;4.00;2.70;;;34.40;47.00;;;;;;4917182;29;20877;-76
2023/09/11 14:07:08;;;;;;;3.70;2.77;;;34.70;47.00;;;;;;4917023;29;20468;-76
2023/09/11 14:09:35;;;;;;;4.60;2.93;;;34.80;45.50;;;;;;4917096;29;20436;-76
2023/09/11 14:12:03;;;;;;;3.00;2.70;;;34.80;45.20;;;;;;4917172;29;20444;-75
2023/09/11 14:14:31;;;;;;;3.47;2.60;;;35.00;45.50;;;;;;4917072;29;20476;-76
2023/09/11 14:16:58;;;;;;;2.83;2.33;;;35.30;44.40;;;;;;4916795;29;20917;-76
2023/09/11 14:19:25;;;;;;;4.27;2.77;;;35.40;45.90;;;;;;4917092;29;20455;-76
2023/09/11 14:21:51;;;;;;;3.60;2.97;;;35.90;44.90;;;;;;4916937;29;20484;-75
2023/09/11 14:24:19;;;;;;;3.83;2.83;;;36.70;44.40;;;;;;4917072;29;20447;-76
2023/09/11 14:26:46;;;;;;;3.43;2.17;;;37.10;42.50;;;;;;4916883;29;20499;-76
2023/09/11 14:29:14;;;;;;;3.07;2.77;;;38.00;41.90;;;;;;4916973;29;20456;-76
2023/09/11 14:31:40;;;;;;;2.92;2.33;;;39.10;40.00;;;;;;4916892;29;20444;-77
2023/09/11 14:34:07;;;;;;;4.05;2.67;;;40.30;38.40;;;;;;4916850;29;20216;-77
2023/09/11 14:36:34;;;;;;;3.80;2.35;;;41.40;36.90;;;;;;4919138;29;20231;-75
2023/09/11 14:39:00;;;;;;;4.85;2.58;;;42.30;36.20;;;;;;4920779;29;20208;-76
2023/09/11 14:41:27;;;;;;;3.75;2.30;;;43.10;34.40;;;;;;4920561;29;20322;-76
2023/09/11 14:43:54;;;;;;;4.55;2.60;;;43.50;34.80;;;;;;4920605;29;20208;-76
2023/09/11 14:46:22;;;;;;;4.63;2.60;;;43.70;33.80;;;;;;4920565;29;20295;-75
2023/09/11 14:48:55;;;;;;;3.17;2.42;;;44.30;33.00;;;;;;4920459;29;20208;-76
2023/09/11 14:51:21;;;;;;;5.28;2.72;;;45.60;32.70;;;;;;4920239;29;20546;-76
2023/09/11 14:53:48;;;;;;;3.25;2.40;;;45.30;32.90;;;;;;4920170;29;20677;-76
2023/09/11 14:56:15;;;;;;;3.35;2.30;;;45.70;32.30;;;;;;4920311;29;20243;-76
2023/09/11 14:58:42;;;;;;;2.80;2.53;;;46.60;30.70;;;;;;4920060;29;20694;-76
2023/09/11 15:01:09;;;;;;;2.90;2.58;;;46.80;30.70;;;;;;4920318;29;20207;-76
2023/09/11 15:03:37;;;;;;;2.95;2.33;;;46.80;30.70;;;;;;4920002;29;20653;-76
2023/09/11 15:06:03;;;;;;;3.97;2.65;;;47.10;31.00;;;;;;4920169;29;20235;-77
2023/09/11 15:08:30;;;;;;;2.50;2.30;;;47.70;30.00;;;;;;4920003;29;20685;-77
2023/09/11 15:10:57;;;;;;;2.50;2.30;;;47.70;30.10;;;;;;4920156;29;20212;-77
2023/09/11 15:13:25;;;;;;;3.40;2.38;;;47.70;30.30;;;;;;4920128;29;20670;-77
2023/09/11 15:15:52;;;;;;;2.60;2.40;;;47.80;30.00;;;;;;4920094;29;20260;-77
2023/09/11 15:18:19;;;;;;;2.85;2.33;;;47.60;30.10;;;;;;4919541;29;20243;-76
2023/09/11 15:20:48;;;;;;;3.65;2.20;;;47.40;30.20;;;;;;4919991;29;20244;-75
2023/09/11 15:23:14;;;;;;;3.38;3.00;;;47.00;30.30;;;;;;4919932;29;20224;-76
2023/09/11 15:25:41;;;;;;;3.05;2.65;;;45.40;31.60;;;;;;4919931;29;20208;-75
2023/09/11 15:28:08;;;;;;;5.30;2.60;;;43.80;32.90;;;;;;4919780;29;20239;-75
2023/09/11 15:30:37;;;;;;;3.10;2.40;;;41.70;35.50;;;;;;4919514;29;20208;-75
2023/09/11 15:33:05;;;;;;;6.40;2.90;;;40.20;36.70;;;;;;4919772;29;20243;-75
2023/09/11 15:35:31;;;;;;;3.10;2.63;;;38.80;38.10;;;;;;4919712;29;20212;-75
2023/09/11 15:37:59;;;;;;;2.60;2.23;;;38.30;39.30;;;;;;4919679;29;20228;-75
2023/09/11 15:40:26;;;;;;;4.87;2.83;;;37.40;41.10;;;;;;4919402;29;20961;-74
2023/09/11 15:42:53;;;;;;;2.87;2.40;;;36.40;42.20;;;;;;4919549;29;20531;-73
2023/09/11 15:45:20;;;;;;;3.47;2.93;;;35.80;43.40;;;;;;4920307;29;20459;-73
2023/09/11 15:47:47;;;;;;;4.40;2.73;;;35.10;44.40;;;;;;4918760;29;20552;-72
2023/09/11 15:50:13;;;;;;;3.27;2.80;;;34.60;45.50;;;;;;4919553;29;20448;-72
2023/09/11 15:52:41;;;;;;;4.77;2.90;;;34.20;45.40;;;;;;4919145;29;20461;-73
2023/09/11 15:55:09;;;;;;;3.30;2.50;;;33.80;46.00;;;;;;4919375;29;20456;-74
2023/09/11 15:57:36;;;;;;;5.50;3.00;;;33.60;47.00;;;;;;4919313;29;20468;-73
2023/09/11 16:00:04;;;;;;;3.63;2.30;;;33.20;47.50;;;;;;4919348;29;20453;-74
2023/09/11 16:02:30;;;;;;;4.20;2.90;;;33.10;48.00;;;;;;4919173;29;20919;-73
2023/09/11 16:04:57;;;;;;;3.50;2.70;;;33.00;48.50;;;;;;4919171;29;20449;-74
2023/09/11 16:07:24;;;;;;;4.43;2.73;;;33.00;48.40;;;;;;4919121;29;20468;-74
2023/09/11 16:09:50;;;;;;;4.33;2.87;;;33.00;48.30;;;;;;4919166;29;20445;-73
2023/09/11 16:12:18;;;;;;;4.60;2.50;;;33.00;48.40;;;;;;4919071;29;20440;-74
2023/09/11 16:14:45;;;;;;;3.77;3.10;;;32.90;48.90;;;;;;4919017;29;20452;-74
2023/09/11 16:17:12;;;;;;;3.60;2.97;;;32.70;49.00;;;;;;4919324;29;20488;-74
2023/09/11 16:19:38;;;;;;;6.27;3.37;;;32.70;49.50;;;;;;4919000;29;20519;-74
2023/09/11 16:22:05;;;;;;;3.40;2.77;;;32.70;49.40;;;;;;4918874;29;20488;-73
2023/09/11 16:24:32;;;;;;;4.60;2.60;;;32.60;49.40;;;;;;4919116;29;20456;-73
2023/09/11 16:26:59;;;;;;;2.90;2.60;;;32.60;49.40;;;;;;4918780;29;20473;-72
2023/09/11 16:29:27;;;;;;;4.13;3.10;;;32.40;49.80;;;;;;4918648;29;20452;-74
2023/09/11 16:31:53;;;;;;;3.53;2.43;;;32.20;49.80;;;;;;4918768;29;20444;-73
2023/09/11 16:34:20;;;;;;;4.23;2.70;;;32.00;50.10;;;;;;4918663;29;20453;-72
2023/09/11 16:36:47;;;;;;;4.43;2.83;;;32.00;50.40;;;;;;4918627;29;20505;-72
2023/09/11 16:39:14;;;;;;;4.80;2.77;;;31.90;50.20;;;;;;4918672;29;20480;-74
2023/09/11 16:41:40;;;;;;;4.50;2.93;;;31.80;50.50;;;;;;4918257;29;20961;-73
2023/09/11 16:44:07;;;;;;;6.57;2.90;;;31.60;50.80;;;;;;4918475;29;20484;-73
2023/09/11 16:46:35;;;;;;;3.17;2.80;;;31.70;51.00;;;;;;4918388;29;20472;-74
2023/09/11 16:49:02;;;;;;;4.13;3.13;;;31.60;51.10;;;;;;4918401;29;20579;-74
2023/09/11 16:51:28;;;;;;;4.53;2.70;;;31.50;51.50;;;;;;4918339;29;20451;-73